Terminal Aerodrome Forecast
Issued by NWS

Home | Current Version | Previous Version | Text Only | Print | Product List | Glossary On
Versions: 1 2 3 4 5 6 7 8 9 10 11 12 13 14 15 16 17 18 19 20 21 22 23 24 25 26 27 28 29 30 31 32 33 34 35 36 37 38 39 40 41 42 43 44 45 46 47 48 49 50
237
FTUS44 KLIX 131608 AAA
TAFASD
TAF AMD
KASD 131608Z 1316/1412 35005KT 1/2SM FG VV002
     FM131730 01004KT 4SM BR OVC004
     FM131800 VRB03KT 6SM BR OVC006
     FM131900 VRB03KT P6SM BKN015 OVC035
     FM140100 00000KT 5SM BR OVC008
     FM140600 00000KT 1SM BR OVC003
      TEMPO 1408/1412 1/2SM FG VV002=

USA.gov is the U.S. government's official web portal to all federal, state and local government web resources and services.